Gluecksburg — 9HA3437 — position and weather

sailwx.info

Track history (hours):
 
Tides and Currents Weather Stations Pressure Air Temp Water Temp Dewpoint Dewpoint Depression Visibility Wind Speed Wind Dir Waves Ship Positions

Gluecksburg

Last reported at 2018-Jun-21 09:49 UTC. Time now 2018-Jun-25 14:16 UTC.
Position N 40°26' W 073°49'.

Length 176 m; draft 9.7 m.

Type: Cargo ship. MMSI: 229600000.

Date/timePositionNaut miles runAvg speedWind from/ knotsBaromVisibWave heightAir tempDewpointWater temp
2018-Jun-21 09:49N 40°26' W 073°49'412.4
2018-Jun-21 09:30N 40°28' W 073°53'815.2
2018-Jun-21 09:00N 40°32' W 074°01'611.9
2018-Jun-21 08:30N 40°38' W 074°03'3 6.9
2018-Jun-21 08:01N 40°41' W 074°01'1 1.1
2018-Jun-21 07:29N 40°41' W 074°01'0 0.0
2018-Jun-21 06:59N 40°41' W 074°01'0 0.0
2018-Jun-21 06:29N 40°41' W 074°01'0 0.0
2018-Jun-21 05:59N 40°41' W 074°01'0 0.0
2018-Jun-21 05:29N 40°41' W 074°01'0 0.0
2018-Jun-21 04:59N 40°41' W 074°01'0 0.0
2018-Jun-21 04:29N 40°41' W 074°01'0 0.0
2018-Jun-21 03:59N 40°41' W 074°01'0 0.0
2018-Jun-21 03:29N 40°41' W 074°01'0 0.0
2018-Jun-21 02:59N 40°41' W 074°01'0 0.0
2018-Jun-21 02:29N 40°41' W 074°01'0 0.0
2018-Jun-21 01:59N 40°41' W 074°01'0 0.0
2018-Jun-21 01:29N 40°41' W 074°01'0 0.0
2018-Jun-21 00:59N 40°41' W 074°01'0 0.0
2018-Jun-21 00:29N 40°41' W 074°01'0 0.0
2018-Jun-20 23:59N 40°41' W 074°01'0 0.0
2018-Jun-20 23:29N 40°41' W 074°01'0 0.0
2018-Jun-20 22:59N 40°41' W 074°01'0 0.0
2018-Jun-20 22:29N 40°41' W 074°01'0 0.0
2018-Jun-20 21:59N 40°41' W 074°01'0 0.0
2018-Jun-20 21:29N 40°41' W 074°01'0 0.0
2018-Jun-20 20:59N 40°41' W 074°01'0 0.0
2018-Jun-20 20:29N 40°41' W 074°01'0 0.0
2018-Jun-20 19:59N 40°41' W 074°01'0 0.0
2018-Jun-20 19:29N 40°41' W 074°01'0 0.0
2018-Jun-20 18:59N 40°41' W 074°01'0 0.0
2018-Jun-20 18:29N 40°41' W 074°01'0 0.0
2018-Jun-20 17:59N 40°41' W 074°01'0 0.0
2018-Jun-20 17:29N 40°41' W 074°01'0 0.0
2018-Jun-20 16:59N 40°41' W 074°01'0 0.0
2018-Jun-20 16:29N 40°41' W 074°01'0 0.0
2018-Jun-20 15:59N 40°41' W 074°01'0 0.0
2018-Jun-20 15:29N 40°41' W 074°01'0 0.0
2018-Jun-20 14:59N 40°41' W 074°01'0 0.0
2018-Jun-20 14:29N 40°41' W 074°01'0 0.0
2018-Jun-20 13:59N 40°41' W 074°01'0 0.0
2018-Jun-20 13:29N 40°41' W 074°01'0 0.0
2018-Jun-20 12:59N 40°41' W 074°01'0 0.0
2018-Jun-20 12:29N 40°41' W 074°01'0 0.0
2018-Jun-20 11:59N 40°41' W 074°01'0 0.0
2018-Jun-20 11:29N 40°41' W 074°01'0 0.0
2018-Jun-20 10:59N 40°41' W 074°01'0 0.0
2018-Jun-20 10:29N 40°41' W 074°01'0 0.0
2018-Jun-20 09:59N 40°41' W 074°01'0 0.0
2018-Jun-20 09:29N 40°41' W 074°01'0 0.0
2018-Jun-20 08:59N 40°41' W 074°01'0 0.0
2018-Jun-20 08:29N 40°41' W 074°01'0 0.0
2018-Jun-20 07:59N 40°41' W 074°01'0 0.0
2018-Jun-20 07:29N 40°41' W 074°01'0 0.0
2018-Jun-20 06:59N 40°41' W 074°01'0 0.0
2018-Jun-20 06:29N 40°41' W 074°01'0 0.0
2018-Jun-20 05:59N 40°41' W 074°01'0 0.0
2018-Jun-20 05:29N 40°41' W 074°01'0 0.0
2018-Jun-20 04:59N 40°41' W 074°01'0 0.0
2018-Jun-20 04:29N 40°41' W 074°01'0 0.0
2018-Jun-20 03:59N 40°41' W 074°01'0 0.0
2018-Jun-20 03:29N 40°41' W 074°01'0 0.0
2018-Jun-20 02:59N 40°41' W 074°01'0 0.0
2018-Jun-20 02:29N 40°41' W 074°01'0 0.0
2018-Jun-20 01:59N 40°41' W 074°01'0 0.0
2018-Jun-20 01:29N 40°41' W 074°01'0 0.0
2018-Jun-20 00:59N 40°41' W 074°01'0 0.0
2018-Jun-20 00:31N 40°41' W 074°01'0 0.0
2018-Jun-20 00:00N 40°41' W 074°01'2 3.4
2018-Jun-19 23:30N 40°40' W 074°03'5 8.5
2018-Jun-19 22:58N 40°36' W 074°02'27 9.6
2018-Jun-19 20:07N 40°12' W 073°45'214.7
2018-Jun-19 20:00N 40°10' W 073°44'1514.3
2018-Jun-19 18:58N 39°56' W 073°43'914.1
2018-Jun-19 18:20N 39°47' W 073°43'514.1
2018-Jun-19 18:00N 39°42' W 073°44'914.1
2018-Jun-19 17:24N 39°34' W 073°49'614.3
2018-Jun-19 17:00N 39°29' W 073°53'67 9.9
2018-Jun-19 10:13N 39°11' W 075°16'617.9
2018-Jun-19 09:55N 39°15' W 075°20'717.9
2018-Jun-19 09:30N 39°21' W 075°26'816.9
2018-Jun-19 09:00N 39°27' W 075°33'713.6
2018-Jun-19 08:30N 39°34' W 075°33'611.3
2018-Jun-19 08:00N 39°40' W 075°32'611.2
2018-Jun-19 07:30N 39°45' W 075°30'510.3
2018-Jun-19 07:00N 39°48' W 075°25'4 8.4
2018-Jun-19 06:30N 39°51' W 075°20'0 0.6
2018-Jun-19 06:00N 39°51' W 075°20'0 0.0
2018-Jun-19 05:30N 39°51' W 075°20'0 0.0
2018-Jun-19 05:00N 39°51' W 075°20'0 0.0
2018-Jun-19 04:30N 39°51' W 075°20'0 0.0
2018-Jun-19 04:00N 39°51' W 075°20'0 0.0
2018-Jun-19 03:30N 39°51' W 075°20'0 0.0
2018-Jun-19 03:00N 39°51' W 075°20'0 0.0
2018-Jun-19 02:30N 39°51' W 075°20'0 0.0
2018-Jun-19 02:00N 39°51' W 075°20'0 0.0
2018-Jun-19 01:30N 39°51' W 075°20'0 0.0
2018-Jun-19 01:00N 39°51' W 075°20'0 0.0
2018-Jun-19 00:30N 39°51' W 075°20'0 0.0
2018-Jun-19 00:00N 39°51' W 075°20'0 0.0
2018-Jun-18 23:30N 39°51' W 075°20'0 0.0
2018-Jun-18 23:00N 39°51' W 075°20'0 0.0
2018-Jun-18 22:30N 39°51' W 075°20'0 0.0
2018-Jun-18 21:57N 39°51' W 075°20'0 0.0
2018-Jun-18 21:30N 39°51' W 075°20'0 0.0
2018-Jun-18 21:00N 39°51' W 075°20'0 0.0
2018-Jun-18 20:30N 39°51' W 075°20'0 0.0
2018-Jun-18 20:00N 39°51' W 075°20'0 0.0
2018-Jun-18 19:30N 39°51' W 075°20'0 0.0
2018-Jun-18 19:00N 39°51' W 075°20'0 0.0
2018-Jun-18 18:30N 39°51' W 075°20'0 0.0
2018-Jun-18 18:00N 39°51' W 075°20'0 0.0
2018-Jun-18 17:30N 39°51' W 075°20'0 0.0
2018-Jun-18 17:00N 39°51' W 075°20'0 0.0
2018-Jun-18 16:30N 39°51' W 075°20'0 0.0
2018-Jun-18 15:57N 39°51' W 075°20'0 0.0
2018-Jun-18 15:30N 39°51' W 075°20'0 0.0
2018-Jun-18 15:00N 39°51' W 075°20'0 0.0
2018-Jun-18 14:27N 39°51' W 075°20'0 0.0
2018-Jun-18 14:00N 39°51' W 075°20'0 0.0
2018-Jun-18 13:30N 39°51' W 075°20'0 0.0
2018-Jun-18 13:00N 39°51' W 075°20'0 0.0
2018-Jun-18 12:27N 39°51' W 075°20'0 0.1
2018-Jun-18 12:00N 39°51' W 075°20'2 3.9
2018-Jun-18 11:30N 39°50' W 075°22'5 9.3
2018-Jun-18 11:00N 39°47' W 075°27'612.6
2018-Jun-18 10:30N 39°42' W 075°31'713.2
2018-Jun-18 10:00N 39°35' W 075°34'713.5
2018-Jun-18 09:30N 39°29' W 075°34'815.5
2018-Jun-18 09:00N 39°22' W 075°28'816.0
2018-Jun-18 08:30N 39°16' W 075°21'815.9
2018-Jun-18 08:00N 39°10' W 075°15'612.8
2018-Jun-18 07:30N 39°04' W 075°11'815.8
2018-Jun-18 07:00N 38°57' W 075°07'815.5
2018-Jun-18 06:30N 38°50' W 075°03'4 8.5
2018-Jun-18 06:00N 38°46' W 075°00'510.4
2018-Jun-18 05:30N 38°43' W 074°55'816.2
2018-Jun-18 05:00N 38°37' W 074°48'816.2
2018-Jun-18 04:30N 38°30' W 074°42'816.5
2018-Jun-18 04:00N 38°24' W 074°35'917.7
2018-Jun-18 03:30N 38°18' W 074°28'917.9
2018-Jun-18 03:00N 38°11' W 074°20'1218.1
2018-Jun-18 02:21N 38°02' W 074°10'  
2018-Jun-12 13:09N 09°37' W 079°46'420.1
2018-Jun-12 12:59N 09°34' W 079°48'919.3
2018-Jun-12 12:30N 09°26' W 079°54'510.1
2018-Jun-12 12:00N 09°21' W 079°53'0 0.1
2018-Jun-12 11:29N 09°21' W 079°53'0 0.1
2018-Jun-12 10:59N 09°21' W 079°53'0 0.1
2018-Jun-12 10:29N 09°21' W 079°53'0 0.0
2018-Jun-12 09:56N 09°21' W 079°53'0 0.0
2018-Jun-12 09:29N 09°21' W 079°53'0 0.0
2018-Jun-12 08:59N 09°21' W 079°53'0 0.0
2018-Jun-12 08:29N 09°21' W 079°53'0 0.0
2018-Jun-12 07:59N 09°21' W 079°53'0 0.0
2018-Jun-12 07:29N 09°21' W 079°53'0 0.0
2018-Jun-12 06:59N 09°21' W 079°53'0 0.0
2018-Jun-12 06:29N 09°21' W 079°53'0 0.0
2018-Jun-12 05:59N 09°21' W 079°53'0 0.0
2018-Jun-12 05:29N 09°21' W 079°53'0 0.0
2018-Jun-12 04:59N 09°21' W 079°53'0 0.0
2018-Jun-12 04:29N 09°21' W 079°53'0 0.0
2018-Jun-12 03:59N 09°21' W 079°53'0 0.0
2018-Jun-12 03:29N 09°21' W 079°53'0 0.0
2018-Jun-12 02:59N 09°21' W 079°53'0 0.0
2018-Jun-12 02:29N 09°21' W 079°53'0 0.0
2018-Jun-12 01:59N 09°21' W 079°53'0 0.0
2018-Jun-12 01:29N 09°21' W 079°53'0 0.0
2018-Jun-12 00:59N 09°21' W 079°53'0 0.0
2018-Jun-12 00:29N 09°21' W 079°53'0 0.0
2018-Jun-11 23:59N 09°21' W 079°53'0 0.0
2018-Jun-11 23:29N 09°21' W 079°53'0 0.0
2018-Jun-11 22:59N 09°21' W 079°53'0 0.0
2018-Jun-11 22:29N 09°21' W 079°53'0 0.0
2018-Jun-11 21:59N 09°21' W 079°53'0 0.0
2018-Jun-11 21:29N 09°21' W 079°53'0 0.0
2018-Jun-11 20:59N 09°21' W 079°53'0 0.0
2018-Jun-11 20:29N 09°21' W 079°53'0 0.0
2018-Jun-11 19:59N 09°21' W 079°53'0 0.0
2018-Jun-11 19:29N 09°21' W 079°53'0 0.0
2018-Jun-11 18:59N 09°21' W 079°53'0 0.0
2018-Jun-11 18:29N 09°21' W 079°53'0 0.0
2018-Jun-11 17:59N 09°21' W 079°53'0 0.0
2018-Jun-11 17:29N 09°21' W 079°53'0 0.0
2018-Jun-11 16:59N 09°21' W 079°53'0 0.0
2018-Jun-11 16:29N 09°21' W 079°53'0 0.0
2018-Jun-11 15:59N 09°21' W 079°53'0 0.0
2018-Jun-11 15:29N 09°21' W 079°53'0 0.0
2018-Jun-11 14:59N 09°21' W 079°53'0 0.0
2018-Jun-11 14:29N 09°21' W 079°53'0 0.0
2018-Jun-11 13:59N 09°21' W 079°53'0 0.0
2018-Jun-11 13:29N 09°21' W 079°53'0 0.0
2018-Jun-11 12:59N 09°21' W 079°53'0 0.0
2018-Jun-11 12:29N 09°21' W 079°53'0 0.0
2018-Jun-11 11:59N 09°21' W 079°53'0 0.0
2018-Jun-11 11:29N 09°21' W 079°53'0 0.0
2018-Jun-11 10:59N 09°21' W 079°53'0 0.0
2018-Jun-11 10:29N 09°21' W 079°53'0 0.0
2018-Jun-11 09:59N 09°21' W 079°53'  
Track history (hours):
 
Tides and Currents Weather Stations Pressure Air Temp Water Temp Dewpoint Dewpoint Depression Visibility Wind Speed Wind Dir Waves Ship Positions

Gluecksburg

Last reported at 2018-Jun-21 09:49 UTC. Time now 2018-Jun-25 14:16 UTC.
Position N 40°26' W 073°49'.

Length 176 m; draft 9.7 m.

Type: Cargo ship. MMSI: 229600000.

Date/timePositionNaut miles runAvg speedWind from/ knotsBaromVisibWave heightAir tempDewpointWater temp
2018-Jun-21 09:49N 40°26' W 073°49'412.4
2018-Jun-21 09:30N 40°28' W 073°53'815.2
2018-Jun-21 09:00N 40°32' W 074°01'611.9
2018-Jun-21 08:30N 40°38' W 074°03'3 6.9
2018-Jun-21 08:01N 40°41' W 074°01'1 1.1
2018-Jun-21 07:29N 40°41' W 074°01'0 0.0
2018-Jun-21 06:59N 40°41' W 074°01'0 0.0
2018-Jun-21 06:29N 40°41' W 074°01'0 0.0
2018-Jun-21 05:59N 40°41' W 074°01'0 0.0
2018-Jun-21 05:29N 40°41' W 074°01'0 0.0
2018-Jun-21 04:59N 40°41' W 074°01'0 0.0
2018-Jun-21 04:29N 40°41' W 074°01'0 0.0
2018-Jun-21 03:59N 40°41' W 074°01'0 0.0
2018-Jun-21 03:29N 40°41' W 074°01'0 0.0
2018-Jun-21 02:59N 40°41' W 074°01'0 0.0
2018-Jun-21 02:29N 40°41' W 074°01'0 0.0
2018-Jun-21 01:59N 40°41' W 074°01'0 0.0
2018-Jun-21 01:29N 40°41' W 074°01'0 0.0
2018-Jun-21 00:59N 40°41' W 074°01'0 0.0
2018-Jun-21 00:29N 40°41' W 074°01'0 0.0
2018-Jun-20 23:59N 40°41' W 074°01'0 0.0
2018-Jun-20 23:29N 40°41' W 074°01'0 0.0
2018-Jun-20 22:59N 40°41' W 074°01'0 0.0
2018-Jun-20 22:29N 40°41' W 074°01'0 0.0
2018-Jun-20 21:59N 40°41' W 074°01'0 0.0
2018-Jun-20 21:29N 40°41' W 074°01'0 0.0
2018-Jun-20 20:59N 40°41' W 074°01'0 0.0
2018-Jun-20 20:29N 40°41' W 074°01'0 0.0
2018-Jun-20 19:59N 40°41' W 074°01'0 0.0
2018-Jun-20 19:29N 40°41' W 074°01'0 0.0
2018-Jun-20 18:59N 40°41' W 074°01'0 0.0
2018-Jun-20 18:29N 40°41' W 074°01'0 0.0
2018-Jun-20 17:59N 40°41' W 074°01'0 0.0
2018-Jun-20 17:29N 40°41' W 074°01'0 0.0
2018-Jun-20 16:59N 40°41' W 074°01'0 0.0
2018-Jun-20 16:29N 40°41' W 074°01'0 0.0
2018-Jun-20 15:59N 40°41' W 074°01'0 0.0
2018-Jun-20 15:29N 40°41' W 074°01'0 0.0
2018-Jun-20 14:59N 40°41' W 074°01'0 0.0
2018-Jun-20 14:29N 40°41' W 074°01'0 0.0
2018-Jun-20 13:59N 40°41' W 074°01'0 0.0
2018-Jun-20 13:29N 40°41' W 074°01'0 0.0
2018-Jun-20 12:59N 40°41' W 074°01'0 0.0
2018-Jun-20 12:29N 40°41' W 074°01'0 0.0
2018-Jun-20 11:59N 40°41' W 074°01'0 0.0
2018-Jun-20 11:29N 40°41' W 074°01'0 0.0
2018-Jun-20 10:59N 40°41' W 074°01'0 0.0
2018-Jun-20 10:29N 40°41' W 074°01'0 0.0
2018-Jun-20 09:59N 40°41' W 074°01'0 0.0
2018-Jun-20 09:29N 40°41' W 074°01'0 0.0
2018-Jun-20 08:59N 40°41' W 074°01'0 0.0
2018-Jun-20 08:29N 40°41' W 074°01'0 0.0
2018-Jun-20 07:59N 40°41' W 074°01'0 0.0
2018-Jun-20 07:29N 40°41' W 074°01'0 0.0
2018-Jun-20 06:59N 40°41' W 074°01'0 0.0
2018-Jun-20 06:29N 40°41' W 074°01'0 0.0
2018-Jun-20 05:59N 40°41' W 074°01'0 0.0
2018-Jun-20 05:29N 40°41' W 074°01'0 0.0
2018-Jun-20 04:59N 40°41' W 074°01'0 0.0
2018-Jun-20 04:29N 40°41' W 074°01'0 0.0
2018-Jun-20 03:59N 40°41' W 074°01'0 0.0
2018-Jun-20 03:29N 40°41' W 074°01'0 0.0
2018-Jun-20 02:59N 40°41' W 074°01'0 0.0
2018-Jun-20 02:29N 40°41' W 074°01'0 0.0
2018-Jun-20 01:59N 40°41' W 074°01'0 0.0
2018-Jun-20 01:29N 40°41' W 074°01'0 0.0
2018-Jun-20 00:59N 40°41' W 074°01'0 0.0
2018-Jun-20 00:31N 40°41' W 074°01'0 0.0
2018-Jun-20 00:00N 40°41' W 074°01'2 3.4
2018-Jun-19 23:30N 40°40' W 074°03'5 8.5
2018-Jun-19 22:58N 40°36' W 074°02'27 9.6
2018-Jun-19 20:07N 40°12' W 073°45'214.7
2018-Jun-19 20:00N 40°10' W 073°44'1514.3
2018-Jun-19 18:58N 39°56' W 073°43'914.1
2018-Jun-19 18:20N 39°47' W 073°43'514.1
2018-Jun-19 18:00N 39°42' W 073°44'914.1
2018-Jun-19 17:24N 39°34' W 073°49'614.3
2018-Jun-19 17:00N 39°29' W 073°53'67 9.9
2018-Jun-19 10:13N 39°11' W 075°16'617.9
2018-Jun-19 09:55N 39°15' W 075°20'717.9
2018-Jun-19 09:30N 39°21' W 075°26'816.9
2018-Jun-19 09:00N 39°27' W 075°33'713.6
2018-Jun-19 08:30N 39°34' W 075°33'611.3
2018-Jun-19 08:00N 39°40' W 075°32'611.2
2018-Jun-19 07:30N 39°45' W 075°30'510.3
2018-Jun-19 07:00N 39°48' W 075°25'4 8.4
2018-Jun-19 06:30N 39°51' W 075°20'0 0.6
2018-Jun-19 06:00N 39°51' W 075°20'0 0.0
2018-Jun-19 05:30N 39°51' W 075°20'0 0.0
2018-Jun-19 05:00N 39°51' W 075°20'0 0.0
2018-Jun-19 04:30N 39°51' W 075°20'0 0.0
2018-Jun-19 04:00N 39°51' W 075°20'0 0.0
2018-Jun-19 03:30N 39°51' W 075°20'0 0.0
2018-Jun-19 03:00N 39°51' W 075°20'0 0.0
2018-Jun-19 02:30N 39°51' W 075°20'0 0.0
2018-Jun-19 02:00N 39°51' W 075°20'0 0.0
2018-Jun-19 01:30N 39°51' W 075°20'0 0.0
2018-Jun-19 01:00N 39°51' W 075°20'0 0.0
2018-Jun-19 00:30N 39°51' W 075°20'0 0.0
2018-Jun-19 00:00N 39°51' W 075°20'0 0.0
2018-Jun-18 23:30N 39°51' W 075°20'0 0.0
2018-Jun-18 23:00N 39°51' W 075°20'0 0.0
2018-Jun-18 22:30N 39°51' W 075°20'0 0.0
2018-Jun-18 21:57N 39°51' W 075°20'0 0.0
2018-Jun-18 21:30N 39°51' W 075°20'0 0.0
2018-Jun-18 21:00N 39°51' W 075°20'0 0.0
2018-Jun-18 20:30N 39°51' W 075°20'0 0.0
2018-Jun-18 20:00N 39°51' W 075°20'0 0.0
2018-Jun-18 19:30N 39°51' W 075°20'0 0.0
2018-Jun-18 19:00N 39°51' W 075°20'0 0.0
2018-Jun-18 18:30N 39°51' W 075°20'0 0.0
2018-Jun-18 18:00N 39°51' W 075°20'0 0.0
2018-Jun-18 17:30N 39°51' W 075°20'0 0.0
2018-Jun-18 17:00N 39°51' W 075°20'0 0.0
2018-Jun-18 16:30N 39°51' W 075°20'0 0.0
2018-Jun-18 15:57N 39°51' W 075°20'0 0.0
2018-Jun-18 15:30N 39°51' W 075°20'0 0.0
2018-Jun-18 15:00N 39°51' W 075°20'0 0.0
2018-Jun-18 14:27N 39°51' W 075°20'0 0.0
2018-Jun-18 14:00N 39°51' W 075°20'0 0.0
2018-Jun-18 13:30N 39°51' W 075°20'0 0.0
2018-Jun-18 13:00N 39°51' W 075°20'0 0.0
2018-Jun-18 12:27N 39°51' W 075°20'0 0.1
2018-Jun-18 12:00N 39°51' W 075°20'2 3.9
2018-Jun-18 11:30N 39°50' W 075°22'5 9.3
2018-Jun-18 11:00N 39°47' W 075°27'612.6
2018-Jun-18 10:30N 39°42' W 075°31'713.2
2018-Jun-18 10:00N 39°35' W 075°34'713.5
2018-Jun-18 09:30N 39°29' W 075°34'815.5
2018-Jun-18 09:00N 39°22' W 075°28'816.0
2018-Jun-18 08:30N 39°16' W 075°21'815.9
2018-Jun-18 08:00N 39°10' W 075°15'612.8
2018-Jun-18 07:30N 39°04' W 075°11'815.8
2018-Jun-18 07:00N 38°57' W 075°07'815.5
2018-Jun-18 06:30N 38°50' W 075°03'4 8.5
2018-Jun-18 06:00N 38°46' W 075°00'510.4
2018-Jun-18 05:30N 38°43' W 074°55'816.2
2018-Jun-18 05:00N 38°37' W 074°48'816.2
2018-Jun-18 04:30N 38°30' W 074°42'816.5
2018-Jun-18 04:00N 38°24' W 074°35'917.7
2018-Jun-18 03:30N 38°18' W 074°28'917.9
2018-Jun-18 03:00N 38°11' W 074°20'1218.1
2018-Jun-18 02:21N 38°02' W 074°10'  
2018-Jun-12 13:09N 09°37' W 079°46'420.1
2018-Jun-12 12:59N 09°34' W 079°48'919.3
2018-Jun-12 12:30N 09°26' W 079°54'510.1
2018-Jun-12 12:00N 09°21' W 079°53'0 0.1
2018-Jun-12 11:29N 09°21' W 079°53'0 0.1
2018-Jun-12 10:59N 09°21' W 079°53'0 0.1
2018-Jun-12 10:29N 09°21' W 079°53'0 0.0
2018-Jun-12 09:56N 09°21' W 079°53'0 0.0
2018-Jun-12 09:29N 09°21' W 079°53'0 0.0
2018-Jun-12 08:59N 09°21' W 079°53'0 0.0
2018-Jun-12 08:29N 09°21' W 079°53'0 0.0
2018-Jun-12 07:59N 09°21' W 079°53'0 0.0
2018-Jun-12 07:29N 09°21' W 079°53'0 0.0
2018-Jun-12 06:59N 09°21' W 079°53'0 0.0
2018-Jun-12 06:29N 09°21' W 079°53'0 0.0
2018-Jun-12 05:59N 09°21' W 079°53'0 0.0
2018-Jun-12 05:29N 09°21' W 079°53'0 0.0
2018-Jun-12 04:59N 09°21' W 079°53'0 0.0
2018-Jun-12 04:29N 09°21' W 079°53'0 0.0
2018-Jun-12 03:59N 09°21' W 079°53'0 0.0
2018-Jun-12 03:29N 09°21' W 079°53'0 0.0
2018-Jun-12 02:59N 09°21' W 079°53'0 0.0
2018-Jun-12 02:29N 09°21' W 079°53'0 0.0
2018-Jun-12 01:59N 09°21' W 079°53'0 0.0
2018-Jun-12 01:29N 09°21' W 079°53'0 0.0
2018-Jun-12 00:59N 09°21' W 079°53'0 0.0
2018-Jun-12 00:29N 09°21' W 079°53'0 0.0
2018-Jun-11 23:59N 09°21' W 079°53'0 0.0
2018-Jun-11 23:29N 09°21' W 079°53'0 0.0
2018-Jun-11 22:59N 09°21' W 079°53'0 0.0
2018-Jun-11 22:29N 09°21' W 079°53'0 0.0
2018-Jun-11 21:59N 09°21' W 079°53'0 0.0
2018-Jun-11 21:29N 09°21' W 079°53'0 0.0
2018-Jun-11 20:59N 09°21' W 079°53'0 0.0
2018-Jun-11 20:29N 09°21' W 079°53'0 0.0
2018-Jun-11 19:59N 09°21' W 079°53'0 0.0
2018-Jun-11 19:29N 09°21' W 079°53'0 0.0
2018-Jun-11 18:59N 09°21' W 079°53'0 0.0
2018-Jun-11 18:29N 09°21' W 079°53'0 0.0
2018-Jun-11 17:59N 09°21' W 079°53'0 0.0
2018-Jun-11 17:29N 09°21' W 079°53'0 0.0
2018-Jun-11 16:59N 09°21' W 079°53'0 0.0
2018-Jun-11 16:29N 09°21' W 079°53'0 0.0
2018-Jun-11 15:59N 09°21' W 079°53'0 0.0
2018-Jun-11 15:29N 09°21' W 079°53'0 0.0
2018-Jun-11 14:59N 09°21' W 079°53'0 0.0
2018-Jun-11 14:29N 09°21' W 079°53'0 0.0
2018-Jun-11 13:59N 09°21' W 079°53'0 0.0
2018-Jun-11 13:29N 09°21' W 079°53'0 0.0
2018-Jun-11 12:59N 09°21' W 079°53'0 0.0
2018-Jun-11 12:29N 09°21' W 079°53'0 0.0
2018-Jun-11 11:59N 09°21' W 079°53'0 0.0
2018-Jun-11 11:29N 09°21' W 079°53'0 0.0
2018-Jun-11 10:59N 09°21' W 079°53'0 0.0
2018-Jun-11 10:29N 09°21' W 079°53'0 0.0
2018-Jun-11 09:59N 09°21' W 079°53'  

Dump ship's entire track history